sensor_id;sensor_type;location;lat;lon;timestamp;temperature;humidity
27647;DHT22;42229;51.230;6.240;2023-08-30T00:00:58;15.20;99.90
27647;DHT22;42229;51.230;6.240;2023-08-30T00:03:24;15.20;99.90
27647;DHT22;42229;51.230;6.240;2023-08-30T00:05:50;15.20;99.90
27647;DHT22;42229;51.230;6.240;2023-08-30T00:08:16;15.10;99.90
27647;DHT22;42229;51.230;6.240;2023-08-30T00:10:44;15.10;99.90
27647;DHT22;42229;51.230;6.240;2023-08-30T00:13:11;15.10;99.90
27647;DHT22;42229;51.230;6.240;2023-08-30T00:15:37;15.00;99.90
27647;DHT22;42229;51.230;6.240;2023-08-30T00:18:03;15.00;99.90
27647;DHT22;42229;51.230;6.240;2023-08-30T00:20:30;14.90;99.90
27647;DHT22;42229;51.230;6.240;2023-08-30T00:22:56;14.90;99.90
27647;DHT22;42229;51.230;6.240;2023-08-30T00:25:22;14.80;99.90
27647;DHT22;42229;51.230;6.240;2023-08-30T00:27:49;14.90;99.90
27647;DHT22;42229;51.230;6.240;2023-08-30T00:30:15;14.80;99.90
27647;DHT22;42229;51.230;6.240;2023-08-30T00:32:41;14.80;99.90
27647;DHT22;42229;51.230;6.240;2023-08-30T00:35:07;14.80;99.90
27647;DHT22;42229;51.230;6.240;2023-08-30T00:37:34;14.70;99.90
27647;DHT22;42229;51.230;6.240;2023-08-30T00:40:00;14.70;99.90
27647;DHT22;42229;51.230;6.240;2023-08-30T00:42:27;14.70;99.90
27647;DHT22;42229;51.230;6.240;2023-08-30T00:44:53;14.70;99.90
27647;DHT22;42229;51.230;6.240;2023-08-30T00:47:20;14.70;99.90
27647;DHT22;42229;51.230;6.240;2023-08-30T00:49:46;14.70;99.90
27647;DHT22;42229;51.230;6.240;2023-08-30T00:52:13;14.70;99.90
27647;DHT22;42229;51.230;6.240;2023-08-30T00:54:39;14.70;99.90
27647;DHT22;42229;51.230;6.240;2023-08-30T00:57:06;14.70;99.90
27647;DHT22;42229;51.230;6.240;2023-08-30T00:59:32;14.70;99.90
27647;DHT22;42229;51.230;6.240;2023-08-30T01:01:59;14.70;99.90
27647;DHT22;42229;51.230;6.240;2023-08-30T01:04:27;14.70;99.90
27647;DHT22;42229;51.230;6.240;2023-08-30T01:06:53;14.70;99.90
27647;DHT22;42229;51.230;6.240;2023-08-30T01:09:20;14.70;99.90
27647;DHT22;42229;51.230;6.240;2023-08-30T01:14:52;14.70;99.90
27647;DHT22;42229;51.230;6.240;2023-08-30T01:17:24;14.70;99.90
27647;DHT22;42229;51.230;6.240;2023-08-30T01:19:53;14.70;99.90
27647;DHT22;42229;51.230;6.240;2023-08-30T01:27:41;14.80;99.90
27647;DHT22;42229;51.230;6.240;2023-08-30T01:30:08;14.80;99.90
27647;DHT22;42229;51.230;6.240;2023-08-30T01:32:36;14.80;99.90
27647;DHT22;42229;51.230;6.240;2023-08-30T01:35:03;14.80;99.90
27647;DHT22;42229;51.230;6.240;2023-08-30T01:37:31;14.80;99.90
27647;DHT22;42229;51.230;6.240;2023-08-30T01:39:58;14.80;99.90
27647;DHT22;42229;51.230;6.240;2023-08-30T01:42:25;14.90;99.90
27647;DHT22;42229;51.230;6.240;2023-08-30T01:44:53;14.90;99.90
27647;DHT22;42229;51.230;6.240;2023-08-30T01:47:23;14.90;99.90
27647;DHT22;42229;51.230;6.240;2023-08-30T01:49:52;15.00;99.90
27647;DHT22;42229;51.230;6.240;2023-08-30T01:52:19;15.00;99.90
27647;DHT22;42229;51.230;6.240;2023-08-30T01:54:46;15.00;99.90
27647;DHT22;42229;51.230;6.240;2023-08-30T01:57:13;15.00;99.90
27647;DHT22;42229;51.230;6.240;2023-08-30T01:59:39;15.00;99.90
27647;DHT22;42229;51.230;6.240;2023-08-30T02:02:06;15.00;99.90
27647;DHT22;42229;51.230;6.240;2023-08-30T02:04:32;15.10;99.90
27647;DHT22;42229;51.230;6.240;2023-08-30T02:07:00;15.10;99.90
27647;DHT22;42229;51.230;6.240;2023-08-30T02:12:17;15.10;99.90
27647;DHT22;42229;51.230;6.240;2023-08-30T02:14:44;15.20;99.90
27647;DHT22;42229;51.230;6.240;2023-08-30T02:17:15;15.20;99.90
27647;DHT22;42229;51.230;6.240;2023-08-30T02:19:43;15.20;99.90
27647;DHT22;42229;51.230;6.240;2023-08-30T02:22:11;15.20;99.90
27647;DHT22;42229;51.230;6.240;2023-08-30T02:24:37;15.20;99.90
27647;DHT22;42229;51.230;6.240;2023-08-30T02:27:04;15.30;99.90
27647;DHT22;42229;51.230;6.240;2023-08-30T02:29:30;15.30;99.90
27647;DHT22;42229;51.230;6.240;2023-08-30T02:31:56;15.30;99.90
27647;DHT22;42229;51.230;6.240;2023-08-30T02:34:22;15.30;99.90
27647;DHT22;42229;51.230;6.240;2023-08-30T02:36:49;15.20;99.90
27647;DHT22;42229;51.230;6.240;2023-08-30T02:39:15;15.20;99.90
27647;DHT22;42229;51.230;6.240;2023-08-30T02:41:41;15.20;99.90
27647;DHT22;42229;51.230;6.240;2023-08-30T02:44:07;15.20;99.90
27647;DHT22;42229;51.230;6.240;2023-08-30T02:46:34;15.20;99.90
27647;DHT22;42229;51.230;6.240;2023-08-30T02:49:05;15.20;99.90
27647;DHT22;42229;51.230;6.240;2023-08-30T02:51:31;15.20;99.90
27647;DHT22;42229;51.230;6.240;2023-08-30T02:53:58;15.20;99.90
27647;DHT22;42229;51.230;6.240;2023-08-30T02:56:24;15.20;99.90
27647;DHT22;42229;51.230;6.240;2023-08-30T02:58:51;15.20;99.90
27647;DHT22;42229;51.230;6.240;2023-08-30T03:01:17;15.10;99.90
27647;DHT22;42229;51.230;6.240;2023-08-30T03:03:45;15.10;99.90
27647;DHT22;42229;51.230;6.240;2023-08-30T03:06:11;15.10;99.90
27647;DHT22;42229;51.230;6.240;2023-08-30T03:08:40;15.10;99.90
27647;DHT22;42229;51.230;6.240;2023-08-30T03:11:10;15.10;99.90
27647;DHT22;42229;51.230;6.240;2023-08-30T03:13:42;15.20;99.90
27647;DHT22;42229;51.230;6.240;2023-08-30T03:16:12;15.20;99.90
27647;DHT22;42229;51.230;6.240;2023-08-30T03:18:39;15.20;99.90
27647;DHT22;42229;51.230;6.240;2023-08-30T03:21:05;15.20;99.90
27647;DHT22;42229;51.230;6.240;2023-08-30T03:23:33;15.20;99.90
27647;DHT22;42229;51.230;6.240;2023-08-30T03:26:00;15.30;99.90
27647;DHT22;42229;51.230;6.240;2023-08-30T03:28:33;15.30;99.90
27647;DHT22;42229;51.230;6.240;2023-08-30T03:30:59;15.30;99.90
27647;DHT22;42229;51.230;6.240;2023-08-30T03:33:25;15.30;99.90
27647;DHT22;42229;51.230;6.240;2023-08-30T03:35:52;15.30;99.90
27647;DHT22;42229;51.230;6.240;2023-08-30T03:38:18;15.30;99.90
27647;DHT22;42229;51.230;6.240;2023-08-30T03:40:44;15.40;99.90
27647;DHT22;42229;51.230;6.240;2023-08-30T03:43:11;15.40;99.90
27647;DHT22;42229;51.230;6.240;2023-08-30T03:45:38;15.40;99.90
27647;DHT22;42229;51.230;6.240;2023-08-30T03:48:04;15.40;99.90
27647;DHT22;42229;51.230;6.240;2023-08-30T03:50:31;15.40;99.90
27647;DHT22;42229;51.230;6.240;2023-08-30T03:52:57;15.40;99.90
27647;DHT22;42229;51.230;6.240;2023-08-30T03:55:23;15.40;99.90
27647;DHT22;42229;51.230;6.240;2023-08-30T03:57:50;15.50;99.90
27647;DHT22;42229;51.230;6.240;2023-08-30T04:00:16;15.50;99.90
27647;DHT22;42229;51.230;6.240;2023-08-30T04:02:42;15.50;99.90
27647;DHT22;42229;51.230;6.240;2023-08-30T04:05:11;15.50;99.90
27647;DHT22;42229;51.230;6.240;2023-08-30T04:07:38;15.60;99.90
27647;DHT22;42229;51.230;6.240;2023-08-30T04:10:04;15.60;99.90
27647;DHT22;42229;51.230;6.240;2023-08-30T04:12:33;15.60;99.90
27647;DHT22;42229;51.230;6.240;2023-08-30T04:15:01;15.60;99.90
27647;DHT22;42229;51.230;6.240;2023-08-30T04:17:27;15.60;99.90
27647;DHT22;42229;51.230;6.240;2023-08-30T04:19:54;15.60;99.90
27647;DHT22;42229;51.230;6.240;2023-08-30T04:22:20;15.60;99.90
27647;DHT22;42229;51.230;6.240;2023-08-30T04:24:46;15.60;99.90
27647;DHT22;42229;51.230;6.240;2023-08-30T04:27:13;15.70;99.90
27647;DHT22;42229;51.230;6.240;2023-08-30T04:29:39;15.70;99.90
27647;DHT22;42229;51.230;6.240;2023-08-30T04:32:05;15.70;99.90
27647;DHT22;42229;51.230;6.240;2023-08-30T04:34:32;15.70;99.90
27647;DHT22;42229;51.230;6.240;2023-08-30T04:36:58;15.70;99.90
27647;DHT22;42229;51.230;6.240;2023-08-30T04:39:24;15.70;99.90
27647;DHT22;42229;51.230;6.240;2023-08-30T04:41:52;15.70;99.90
27647;DHT22;42229;51.230;6.240;2023-08-30T04:44:18;15.70;99.90
27647;DHT22;42229;51.230;6.240;2023-08-30T04:46:45;15.80;99.90
27647;DHT22;42229;51.230;6.240;2023-08-30T04:49:12;15.70;99.90
27647;DHT22;42229;51.230;6.240;2023-08-30T04:51:38;15.80;99.90
27647;DHT22;42229;51.230;6.240;2023-08-30T04:54:05;15.80;99.90
27647;DHT22;42229;51.230;6.240;2023-08-30T04:56:32;15.80;99.90
27647;DHT22;42229;51.230;6.240;2023-08-30T04:58:58;15.80;99.90
27647;DHT22;42229;51.230;6.240;2023-08-30T05:01:25;15.80;99.90
27647;DHT22;42229;51.230;6.240;2023-08-30T05:03:54;15.80;99.90
27647;DHT22;42229;51.230;6.240;2023-08-30T05:06:22;15.80;99.90
27647;DHT22;42229;51.230;6.240;2023-08-30T05:08:48;15.80;99.90
27647;DHT22;42229;51.230;6.240;2023-08-30T05:11:14;15.80;99.90
27647;DHT22;42229;51.230;6.240;2023-08-30T05:13:42;15.80;99.90
27647;DHT22;42229;51.230;6.240;2023-08-30T05:16:08;15.80;99.90
27647;DHT22;42229;51.230;6.240;2023-08-30T05:18:34;15.80;99.90
27647;DHT22;42229;51.230;6.240;2023-08-30T05:21:01;15.80;99.90
27647;DHT22;42229;51.230;6.240;2023-08-30T05:23:31;15.80;99.90
27647;DHT22;42229;51.230;6.240;2023-08-30T05:25:58;15.80;99.90
27647;DHT22;42229;51.230;6.240;2023-08-30T05:28:24;15.80;99.90
27647;DHT22;42229;51.230;6.240;2023-08-30T05:30:51;15.80;99.90
27647;DHT22;42229;51.230;6.240;2023-08-30T05:33:35;15.80;99.90
27647;DHT22;42229;51.230;6.240;2023-08-30T05:36:17;15.80;99.90
27647;DHT22;42229;51.230;6.240;2023-08-30T05:39:11;15.80;99.90
27647;DHT22;42229;51.230;6.240;2023-08-30T05:41:45;15.90;99.90
27647;DHT22;42229;51.230;6.240;2023-08-30T05:44:11;15.90;99.90
27647;DHT22;42229;51.230;6.240;2023-08-30T05:46:37;15.90;99.90
27647;DHT22;42229;51.230;6.240;2023-08-30T05:49:04;15.90;99.90
27647;DHT22;42229;51.230;6.240;2023-08-30T05:51:30;15.90;99.90
27647;DHT22;42229;51.230;6.240;2023-08-30T05:53:56;16.00;99.90
27647;DHT22;42229;51.230;6.240;2023-08-30T05:56:23;16.00;99.90
27647;DHT22;42229;51.230;6.240;2023-08-30T05:58:50;16.00;99.90
27647;DHT22;42229;51.230;6.240;2023-08-30T06:01:17;16.10;99.90
27647;DHT22;42229;51.230;6.240;2023-08-30T06:03:45;16.10;99.90
27647;DHT22;42229;51.230;6.240;2023-08-30T06:06:12;16.20;99.90
27647;DHT22;42229;51.230;6.240;2023-08-30T06:08:38;16.20;99.90
27647;DHT22;42229;51.230;6.240;2023-08-30T06:11:06;16.20;99.90
27647;DHT22;42229;51.230;6.240;2023-08-30T06:13:32;16.20;99.90
27647;DHT22;42229;51.230;6.240;2023-08-30T06:15:58;16.30;99.90
27647;DHT22;42229;51.230;6.240;2023-08-30T06:18:26;16.30;99.90
27647;DHT22;42229;51.230;6.240;2023-08-30T06:20:55;16.30;99.90
27647;DHT22;42229;51.230;6.240;2023-08-30T06:23:21;16.40;99.90
27647;DHT22;42229;51.230;6.240;2023-08-30T06:25:54;16.40;99.90
27647;DHT22;42229;51.230;6.240;2023-08-30T06:28:21;16.40;99.90
27647;DHT22;42229;51.230;6.240;2023-08-30T06:30:48;16.50;99.90
27647;DHT22;42229;51.230;6.240;2023-08-30T06:33:14;16.60;99.90
27647;DHT22;42229;51.230;6.240;2023-08-30T06:35:41;16.60;99.90
27647;DHT22;42229;51.230;6.240;2023-08-30T06:38:08;16.70;99.90
27647;DHT22;42229;51.230;6.240;2023-08-30T06:40:34;16.70;99.90
27647;DHT22;42229;51.230;6.240;2023-08-30T06:43:01;16.70;99.90
27647;DHT22;42229;51.230;6.240;2023-08-30T06:45:27;16.90;99.90
27647;DHT22;42229;51.230;6.240;2023-08-30T06:47:53;17.00;99.90
27647;DHT22;42229;51.230;6.240;2023-08-30T06:50:20;17.10;99.90
27647;DHT22;42229;51.230;6.240;2023-08-30T06:52:46;17.20;99.90
27647;DHT22;42229;51.230;6.240;2023-08-30T06:55:12;17.30;99.90
27647;DHT22;42229;51.230;6.240;2023-08-30T06:57:38;17.40;99.90
27647;DHT22;42229;51.230;6.240;2023-08-30T07:00:05;17.50;99.90
27647;DHT22;42229;51.230;6.240;2023-08-30T07:02:35;17.60;99.90
27647;DHT22;42229;51.230;6.240;2023-08-30T07:05:03;17.70;99.90
27647;DHT22;42229;51.230;6.240;2023-08-30T07:07:30;17.90;99.90
27647;DHT22;42229;51.230;6.240;2023-08-30T07:09:57;18.00;99.90
27647;DHT22;42229;51.230;6.240;2023-08-30T07:12:23;18.00;99.90
27647;DHT22;42229;51.230;6.240;2023-08-30T07:14:50;18.20;99.90
27647;DHT22;42229;51.230;6.240;2023-08-30T07:17:16;18.20;99.90
27647;DHT22;42229;51.230;6.240;2023-08-30T07:19:42;18.30;99.90
27647;DHT22;42229;51.230;6.240;2023-08-30T07:22:08;18.40;99.90
27647;DHT22;42229;51.230;6.240;2023-08-30T07:24:34;18.40;99.90
27647;DHT22;42229;51.230;6.240;2023-08-30T07:27:01;18.50;99.90
27647;DHT22;42229;51.230;6.240;2023-08-30T07:29:27;18.60;99.90
27647;DHT22;42229;51.230;6.240;2023-08-30T07:31:53;18.70;99.90
27647;DHT22;42229;51.230;6.240;2023-08-30T07:34:20;18.80;99.90
27647;DHT22;42229;51.230;6.240;2023-08-30T07:36:46;18.90;99.90
27647;DHT22;42229;51.230;6.240;2023-08-30T07:39:13;19.00;99.90
27647;DHT22;42229;51.230;6.240;2023-08-30T07:41:39;19.00;99.90
27647;DHT22;42229;51.230;6.240;2023-08-30T07:44:05;19.10;99.90
27647;DHT22;42229;51.230;6.240;2023-08-30T07:46:31;19.20;99.90
27647;DHT22;42229;51.230;6.240;2023-08-30T07:48:58;19.20;99.90
27647;DHT22;42229;51.230;6.240;2023-08-30T07:51:24;19.30;99.90
27647;DHT22;42229;51.230;6.240;2023-08-30T07:53:50;19.30;99.90
27647;DHT22;42229;51.230;6.240;2023-08-30T07:56:16;19.40;99.90
27647;DHT22;42229;51.230;6.240;2023-08-30T07:58:42;19.40;99.90
27647;DHT22;42229;51.230;6.240;2023-08-30T08:01:09;19.40;99.90
27647;DHT22;42229;51.230;6.240;2023-08-30T08:03:35;19.50;99.90
27647;DHT22;42229;51.230;6.240;2023-08-30T08:06:01;19.50;99.90
27647;DHT22;42229;51.230;6.240;2023-08-30T08:08:29;19.40;99.90
27647;DHT22;42229;51.230;6.240;2023-08-30T08:10:55;19.40;99.90
27647;DHT22;42229;51.230;6.240;2023-08-30T08:13:21;19.40;99.90
27647;DHT22;42229;51.230;6.240;2023-08-30T08:15:47;19.40;99.90
27647;DHT22;42229;51.230;6.240;2023-08-30T08:18:14;19.40;99.90
27647;DHT22;42229;51.230;6.240;2023-08-30T08:20:40;19.30;99.90
27647;DHT22;42229;51.230;6.240;2023-08-30T08:23:06;19.30;99.90
27647;DHT22;42229;51.230;6.240;2023-08-30T08:25:32;19.20;99.90
27647;DHT22;42229;51.230;6.240;2023-08-30T08:27:59;19.20;99.90
27647;DHT22;42229;51.230;6.240;2023-08-30T08:30:25;19.20;99.90
27647;DHT22;42229;51.230;6.240;2023-08-30T08:32:51;19.10;99.90
27647;DHT22;42229;51.230;6.240;2023-08-30T08:35:17;18.90;99.90
27647;DHT22;42229;51.230;6.240;2023-08-30T08:37:43;18.70;99.90
27647;DHT22;42229;51.230;6.240;2023-08-30T08:40:10;18.60;99.90
27647;DHT22;42229;51.230;6.240;2023-08-30T08:42:36;18.40;99.90
27647;DHT22;42229;51.230;6.240;2023-08-30T08:45:03;18.30;99.90
27647;DHT22;42229;51.230;6.240;2023-08-30T08:47:30;18.10;99.90
27647;DHT22;42229;51.230;6.240;2023-08-30T08:50:00;18.00;99.90
27647;DHT22;42229;51.230;6.240;2023-08-30T08:52:29;17.90;99.90
27647;DHT22;42229;51.230;6.240;2023-08-30T08:54:55;17.90;99.90
27647;DHT22;42229;51.230;6.240;2023-08-30T08:57:21;17.80;99.90
27647;DHT22;42229;51.230;6.240;2023-08-30T08:59:48;17.80;99.90
27647;DHT22;42229;51.230;6.240;2023-08-30T09:02:14;17.70;99.90
27647;DHT22;42229;51.230;6.240;2023-08-30T09:04:40;17.80;99.90
27647;DHT22;42229;51.230;6.240;2023-08-30T09:07:07;17.70;99.90
27647;DHT22;42229;51.230;6.240;2023-08-30T09:09:33;17.70;99.90
27647;DHT22;42229;51.230;6.240;2023-08-30T09:12:00;17.80;99.90
27647;DHT22;42229;51.230;6.240;2023-08-30T09:14:26;17.80;99.90
27647;DHT22;42229;51.230;6.240;2023-08-30T09:16:56;17.80;99.90
27647;DHT22;42229;51.230;6.240;2023-08-30T09:19:23;17.80;99.90
27647;DHT22;42229;51.230;6.240;2023-08-30T09:21:51;17.90;99.90
27647;DHT22;42229;51.230;6.240;2023-08-30T09:24:18;17.90;99.90
27647;DHT22;42229;51.230;6.240;2023-08-30T09:26:48;17.90;99.90
27647;DHT22;42229;51.230;6.240;2023-08-30T09:29:18;17.90;99.90
27647;DHT22;42229;51.230;6.240;2023-08-30T09:31:45;17.90;99.90
27647;DHT22;42229;51.230;6.240;2023-08-30T09:34:12;17.90;99.90
27647;DHT22;42229;51.230;6.240;2023-08-30T09:36:39;17.90;99.90
27647;DHT22;42229;51.230;6.240;2023-08-30T09:41:43;17.70;99.90
27647;DHT22;42229;51.230;6.240;2023-08-30T09:44:10;17.70;99.90
27647;DHT22;42229;51.230;6.240;2023-08-30T09:46:41;17.60;99.90
27647;DHT22;42229;51.230;6.240;2023-08-30T09:49:08;17.50;99.90
27647;DHT22;42229;51.230;6.240;2023-08-30T09:51:35;17.40;99.90
27647;DHT22;42229;51.230;6.240;2023-08-30T09:54:02;17.30;99.90
27647;DHT22;42229;51.230;6.240;2023-08-30T09:56:31;17.20;99.90
27647;DHT22;42229;51.230;6.240;2023-08-30T09:58:58;17.10;99.90
27647;DHT22;42229;51.230;6.240;2023-08-30T10:01:26;17.10;99.90
27647;DHT22;42229;51.230;6.240;2023-08-30T10:03:53;17.00;99.90
27647;DHT22;42229;51.230;6.240;2023-08-30T10:06:20;16.90;99.90
27647;DHT22;42229;51.230;6.240;2023-08-30T10:08:49;16.90;99.90
27647;DHT22;42229;51.230;6.240;2023-08-30T10:11:18;16.80;99.90
27647;DHT22;42229;51.230;6.240;2023-08-30T10:13:44;16.70;99.90
27647;DHT22;42229;51.230;6.240;2023-08-30T10:16:12;16.70;99.90
27647;DHT22;42229;51.230;6.240;2023-08-30T10:18:42;16.60;99.90
27647;DHT22;42229;51.230;6.240;2023-08-30T10:21:09;16.60;99.90
27647;DHT22;42229;51.230;6.240;2023-08-30T10:23:37;16.50;99.90
27647;DHT22;42229;51.230;6.240;2023-08-30T10:26:05;16.60;99.90
27647;DHT22;42229;51.230;6.240;2023-08-30T10:28:32;16.50;99.90
27647;DHT22;42229;51.230;6.240;2023-08-30T10:30:59;16.50;99.90
27647;DHT22;42229;51.230;6.240;2023-08-30T10:33:25;16.50;99.90
27647;DHT22;42229;51.230;6.240;2023-08-30T10:35:51;16.50;99.90
27647;DHT22;42229;51.230;6.240;2023-08-30T10:38:24;16.50;99.90
27647;DHT22;42229;51.230;6.240;2023-08-30T10:40:54;16.50;99.90
27647;DHT22;42229;51.230;6.240;2023-08-30T10:43:33;16.50;99.90
27647;DHT22;42229;51.230;6.240;2023-08-30T10:46:01;16.60;99.90
27647;DHT22;42229;51.230;6.240;2023-08-30T10:48:39;16.60;99.90
27647;DHT22;42229;51.230;6.240;2023-08-30T10:51:19;16.60;99.90
27647;DHT22;42229;51.230;6.240;2023-08-30T10:53:57;16.70;99.90
27647;DHT22;42229;51.230;6.240;2023-08-30T10:56:28;16.70;99.90
27647;DHT22;42229;51.230;6.240;2023-08-30T10:58:55;16.70;99.90
27647;DHT22;42229;51.230;6.240;2023-08-30T11:01:21;16.70;99.90
27647;DHT22;42229;51.230;6.240;2023-08-30T11:03:49;16.80;99.90
27647;DHT22;42229;51.230;6.240;2023-08-30T11:06:15;16.80;99.90
27647;DHT22;42229;51.230;6.240;2023-08-30T11:08:44;16.80;99.90
27647;DHT22;42229;51.230;6.240;2023-08-30T11:11:13;16.90;99.90
27647;DHT22;42229;51.230;6.240;2023-08-30T11:13:40;16.90;99.90
27647;DHT22;42229;51.230;6.240;2023-08-30T11:16:06;16.90;99.90
27647;DHT22;42229;51.230;6.240;2023-08-30T11:18:36;16.90;99.90
27647;DHT22;42229;51.230;6.240;2023-08-30T11:21:04;17.00;99.90
27647;DHT22;42229;51.230;6.240;2023-08-30T11:23:31;17.00;99.90
27647;DHT22;42229;51.230;6.240;2023-08-30T11:25:57;17.10;99.90
27647;DHT22;42229;51.230;6.240;2023-08-30T11:28:24;17.10;99.90
27647;DHT22;42229;51.230;6.240;2023-08-30T11:30:54;17.10;99.90
27647;DHT22;42229;51.230;6.240;2023-08-30T11:33:21;17.30;99.90
27647;DHT22;42229;51.230;6.240;2023-08-30T11:35:48;17.30;99.90
27647;DHT22;42229;51.230;6.240;2023-08-30T11:38:16;17.40;99.90
27647;DHT22;42229;51.230;6.240;2023-08-30T11:40:44;17.40;99.90
27647;DHT22;42229;51.230;6.240;2023-08-30T11:43:10;17.50;99.90
27647;DHT22;42229;51.230;6.240;2023-08-30T11:45:36;17.50;99.90
27647;DHT22;42229;51.230;6.240;2023-08-30T11:48:03;17.60;99.90
27647;DHT22;42229;51.230;6.240;2023-08-30T11:50:29;17.60;99.90
27647;DHT22;42229;51.230;6.240;2023-08-30T11:52:56;17.60;99.90
27647;DHT22;42229;51.230;6.240;2023-08-30T11:55:22;17.60;99.90
27647;DHT22;42229;51.230;6.240;2023-08-30T11:57:50;17.60;99.90
27647;DHT22;42229;51.230;6.240;2023-08-30T12:00:18;17.60;99.90
27647;DHT22;42229;51.230;6.240;2023-08-30T12:02:45;17.60;99.90
27647;DHT22;42229;51.230;6.240;2023-08-30T12:05:12;17.50;99.90
27647;DHT22;42229;51.230;6.240;2023-08-30T12:07:39;17.50;99.90
27647;DHT22;42229;51.230;6.240;2023-08-30T12:10:06;17.40;99.90
27647;DHT22;42229;51.230;6.240;2023-08-30T12:12:33;17.40;99.90
27647;DHT22;42229;51.230;6.240;2023-08-30T12:15:11;17.30;99.90
27647;DHT22;42229;51.230;6.240;2023-08-30T12:17:38;17.30;99.90
27647;DHT22;42229;51.230;6.240;2023-08-30T12:20:05;17.30;99.90
27647;DHT22;42229;51.230;6.240;2023-08-30T12:22:38;17.30;99.90
27647;DHT22;42229;51.230;6.240;2023-08-30T12:25:18;17.30;99.90
27647;DHT22;42229;51.230;6.240;2023-08-30T12:27:45;17.30;99.90
27647;DHT22;42229;51.230;6.240;2023-08-30T12:30:15;17.30;99.90
27647;DHT22;42229;51.230;6.240;2023-08-30T12:32:45;17.30;99.90
27647;DHT22;42229;51.230;6.240;2023-08-30T12:35:11;17.30;99.90
27647;DHT22;42229;51.230;6.240;2023-08-30T12:37:38;17.30;99.90
27647;DHT22;42229;51.230;6.240;2023-08-30T12:40:04;17.30;99.90
27647;DHT22;42229;51.230;6.240;2023-08-30T12:42:32;17.30;99.90
27647;DHT22;42229;51.230;6.240;2023-08-30T12:44:59;17.40;99.90
27647;DHT22;42229;51.230;6.240;2023-08-30T12:47:25;17.40;99.90
27647;DHT22;42229;51.230;6.240;2023-08-30T12:49:51;17.40;99.90
27647;DHT22;42229;51.230;6.240;2023-08-30T12:52:17;17.50;99.90
27647;DHT22;42229;51.230;6.240;2023-08-30T12:54:43;17.50;99.90
27647;DHT22;42229;51.230;6.240;2023-08-30T12:57:10;17.50;99.90
27647;DHT22;42229;51.230;6.240;2023-08-30T12:59:36;17.50;99.90
27647;DHT22;42229;51.230;6.240;2023-08-30T13:02:02;17.60;99.90
27647;DHT22;42229;51.230;6.240;2023-08-30T13:04:28;17.60;99.90
27647;DHT22;42229;51.230;6.240;2023-08-30T13:06:55;17.60;99.90
27647;DHT22;42229;51.230;6.240;2023-08-30T13:09:21;17.70;99.90
27647;DHT22;42229;51.230;6.240;2023-08-30T13:11:47;17.80;99.90
27647;DHT22;42229;51.230;6.240;2023-08-30T13:14:13;17.80;99.90
27647;DHT22;42229;51.230;6.240;2023-08-30T13:16:39;17.90;99.90
27647;DHT22;42229;51.230;6.240;2023-08-30T13:19:06;18.00;99.90
27647;DHT22;42229;51.230;6.240;2023-08-30T13:21:32;18.00;99.90
27647;DHT22;42229;51.230;6.240;2023-08-30T13:23:58;18.10;99.90
27647;DHT22;42229;51.230;6.240;2023-08-30T13:26:24;18.10;99.90
27647;DHT22;42229;51.230;6.240;2023-08-30T13:28:51;18.20;99.90
27647;DHT22;42229;51.230;6.240;2023-08-30T13:31:18;18.20;99.90
27647;DHT22;42229;51.230;6.240;2023-08-30T13:33:44;18.20;99.90
27647;DHT22;42229;51.230;6.240;2023-08-30T13:36:10;18.20;99.90
27647;DHT22;42229;51.230;6.240;2023-08-30T13:38:37;18.20;99.90
27647;DHT22;42229;51.230;6.240;2023-08-30T13:41:03;18.20;99.90
27647;DHT22;42229;51.230;6.240;2023-08-30T13:43:30;18.20;99.90
27647;DHT22;42229;51.230;6.240;2023-08-30T13:45:57;18.10;99.90
27647;DHT22;42229;51.230;6.240;2023-08-30T13:48:24;18.10;99.90
27647;DHT22;42229;51.230;6.240;2023-08-30T13:50:50;18.10;99.90
27647;DHT22;42229;51.230;6.240;2023-08-30T13:53:17;18.00;99.90
27647;DHT22;42229;51.230;6.240;2023-08-30T13:55:45;18.00;99.90
27647;DHT22;42229;51.230;6.240;2023-08-30T13:58:14;17.80;99.90
27647;DHT22;42229;51.230;6.240;2023-08-30T14:00:40;17.80;99.90
27647;DHT22;42229;51.230;6.240;2023-08-30T14:03:07;17.70;99.90
27647;DHT22;42229;51.230;6.240;2023-08-30T14:05:36;17.70;99.90
27647;DHT22;42229;51.230;6.240;2023-08-30T14:08:06;17.60;99.90
27647;DHT22;42229;51.230;6.240;2023-08-30T14:10:33;17.60;99.90
27647;DHT22;42229;51.230;6.240;2023-08-30T14:12:59;17.60;99.90
27647;DHT22;42229;51.230;6.240;2023-08-30T14:15:25;17.50;99.90
27647;DHT22;42229;51.230;6.240;2023-08-30T14:17:51;17.50;99.90
27647;DHT22;42229;51.230;6.240;2023-08-30T14:20:18;17.50;99.90
27647;DHT22;42229;51.230;6.240;2023-08-30T14:22:44;17.40;99.90
27647;DHT22;42229;51.230;6.240;2023-08-30T14:25:10;17.40;99.90
27647;DHT22;42229;51.230;6.240;2023-08-30T14:27:39;17.40;99.90
27647;DHT22;42229;51.230;6.240;2023-08-30T14:30:05;17.40;99.90
27647;DHT22;42229;51.230;6.240;2023-08-30T14:32:32;17.50;99.90
27647;DHT22;42229;51.230;6.240;2023-08-30T14:34:58;17.50;99.90
27647;DHT22;42229;51.230;6.240;2023-08-30T14:37:24;17.50;99.90
27647;DHT22;42229;51.230;6.240;2023-08-30T14:39:52;17.60;99.90
27647;DHT22;42229;51.230;6.240;2023-08-30T14:42:19;17.70;99.90
27647;DHT22;42229;51.230;6.240;2023-08-30T14:44:49;17.90;99.90
27647;DHT22;42229;51.230;6.240;2023-08-30T14:47:17;18.00;99.90
27647;DHT22;42229;51.230;6.240;2023-08-30T14:49:44;18.30;99.90
27647;DHT22;42229;51.230;6.240;2023-08-30T14:52:12;18.50;99.90
27647;DHT22;42229;51.230;6.240;2023-08-30T14:54:41;18.80;99.90
27647;DHT22;42229;51.230;6.240;2023-08-30T14:57:08;19.10;99.90
27647;DHT22;42229;51.230;6.240;2023-08-30T14:59:34;19.30;99.90
27647;DHT22;42229;51.230;6.240;2023-08-30T15:02:00;19.60;99.90
27647;DHT22;42229;51.230;6.240;2023-08-30T15:04:27;19.80;99.90
27647;DHT22;42229;51.230;6.240;2023-08-30T15:06:53;20.10;99.90
27647;DHT22;42229;51.230;6.240;2023-08-30T15:09:19;20.50;99.90
27647;DHT22;42229;51.230;6.240;2023-08-30T15:11:45;20.80;99.90
27647;DHT22;42229;51.230;6.240;2023-08-30T15:14:12;21.10;99.90
27647;DHT22;42229;51.230;6.240;2023-08-30T15:16:38;21.50;99.90
27647;DHT22;42229;51.230;6.240;2023-08-30T15:19:04;21.70;99.90
27647;DHT22;42229;51.230;6.240;2023-08-30T15:21:30;21.90;99.90
27647;DHT22;42229;51.230;6.240;2023-08-30T15:23:56;22.10;99.90
27647;DHT22;42229;51.230;6.240;2023-08-30T15:26:23;22.20;99.90
27647;DHT22;42229;51.230;6.240;2023-08-30T15:28:51;22.40;99.90
27647;DHT22;42229;51.230;6.240;2023-08-30T15:31:17;22.60;99.90
27647;DHT22;42229;51.230;6.240;2023-08-30T15:33:45;22.80;99.90
27647;DHT22;42229;51.230;6.240;2023-08-30T15:36:11;22.80;99.90
27647;DHT22;42229;51.230;6.240;2023-08-30T15:38:37;22.80;99.90
27647;DHT22;42229;51.230;6.240;2023-08-30T15:41:10;22.70;99.90
27647;DHT22;42229;51.230;6.240;2023-08-30T15:43:39;22.60;99.90